createdAt,value
2019-06-27T00:00:26.118Z,23.17
2019-06-27T00:01:05.088Z,23.18
2019-06-27T00:02:05.067Z,23.12
2019-06-27T00:03:05.035Z,23.15
2019-06-27T00:04:05.017Z,23.18
2019-06-27T00:05:04.992Z,23.02
2019-06-27T00:06:25.951Z,23.08
2019-06-27T00:07:04.937Z,23.06
2019-06-27T00:08:04.916Z,23.09
2019-06-27T00:09:04.881Z,23.03
2019-06-27T00:10:04.851Z,22.90
2019-06-27T00:11:04.826Z,22.83
2019-06-27T00:12:25.798Z,22.87
2019-06-27T00:13:04.773Z,22.90
2019-06-27T00:14:04.761Z,22.80
2019-06-27T00:15:04.727Z,22.80
2019-06-27T00:16:04.694Z,22.76
2019-06-27T00:17:04.663Z,22.78
2019-06-27T00:18:25.636Z,22.57
2019-06-27T00:19:04.618Z,22.63
2019-06-27T00:20:04.592Z,22.69
2019-06-27T00:21:04.567Z,22.68
2019-06-27T00:22:04.532Z,22.59
2019-06-27T00:23:04.510Z,22.57
2019-06-27T00:24:25.488Z,22.57
2019-06-27T00:25:04.458Z,22.66
2019-06-27T00:26:04.431Z,22.43
2019-06-27T00:27:04.395Z,22.39
2019-06-27T00:28:04.373Z,22.28
2019-06-27T00:29:04.348Z,22.22
2019-06-27T00:30:25.315Z,22.06
2019-06-27T00:31:04.293Z,22.17
2019-06-27T00:32:04.268Z,22.14
2019-06-27T00:33:04.236Z,22.20
2019-06-27T00:34:04.218Z,22.22
2019-06-27T00:35:04.192Z,22.17
2019-06-27T00:36:25.166Z,22.04
2019-06-27T00:37:04.136Z,21.99
2019-06-27T00:38:04.119Z,22.02
2019-06-27T00:39:04.076Z,21.88
2019-06-27T00:40:04.047Z,21.82
2019-06-27T00:41:04.025Z,21.72
2019-06-27T00:42:24.994Z,21.72
2019-06-27T00:43:03.973Z,21.70
2019-06-27T00:44:03.938Z,21.60
2019-06-27T00:45:03.919Z,21.69
2019-06-27T00:46:03.904Z,21.66
2019-06-27T00:47:03.859Z,21.67
2019-06-27T00:48:24.835Z,21.62
2019-06-27T00:49:03.803Z,21.62
2019-06-27T00:50:03.786Z,21.50
2019-06-27T00:51:03.762Z,21.50
2019-06-27T00:52:03.714Z,21.55
2019-06-27T00:53:03.706Z,21.54
2019-06-27T00:54:24.672Z,21.40
2019-06-27T00:55:03.651Z,21.40
2019-06-27T00:56:03.643Z,21.36
2019-06-27T00:57:13.452Z,21.29
2019-06-27T00:58:03.569Z,21.30
2019-06-27T00:59:03.536Z,21.27
2019-06-27T01:00:24.504Z,21.29
2019-06-27T01:01:03.486Z,21.15
2019-06-27T01:02:03.450Z,21.20
2019-06-27T01:03:03.426Z,21.21
2019-06-27T01:04:03.408Z,21.11
2019-06-27T01:05:03.369Z,21.07
2019-06-27T01:06:24.339Z,21.00
2019-06-27T01:07:03.315Z,20.96
2019-06-27T01:08:03.293Z,20.93
2019-06-27T01:09:03.251Z,21.00
2019-06-27T01:10:03.226Z,21.05
2019-06-27T01:11:03.200Z,21.03
2019-06-27T01:12:24.187Z,20.97
2019-06-27T01:13:03.143Z,20.97
2019-06-27T01:14:03.123Z,20.88
2019-06-27T01:15:03.099Z,20.90
2019-06-27T01:16:03.106Z,20.96
2019-06-27T01:17:03.040Z,20.95
2019-06-27T01:18:24.015Z,20.82
2019-06-27T01:19:02.998Z,20.77
2019-06-27T01:20:02.990Z,20.90
2019-06-27T01:21:02.945Z,20.78
2019-06-27T01:22:02.901Z,20.74
2019-06-27T01:23:02.875Z,20.82
2019-06-27T01:24:23.841Z,20.66
2019-06-27T01:25:02.823Z,20.55
2019-06-27T01:26:02.788Z,20.52
2019-06-27T01:27:02.762Z,20.52
2019-06-27T01:28:02.731Z,20.40
2019-06-27T01:29:02.708Z,20.52
2019-06-27T01:30:23.671Z,20.48
2019-06-27T01:31:02.655Z,20.52
2019-06-27T01:32:02.628Z,20.51
2019-06-27T01:33:02.592Z,20.51
2019-06-27T01:34:02.554Z,20.63
2019-06-27T01:35:04.389Z,20.52
2019-06-27T01:36:23.497Z,20.52
2019-06-27T01:37:02.507Z,20.59
2019-06-27T01:38:02.453Z,20.56
2019-06-27T01:39:02.423Z,20.52
2019-06-27T01:40:02.421Z,20.51
2019-06-27T01:41:02.382Z,20.51
2019-06-27T01:42:23.349Z,20.41
2019-06-27T01:43:02.313Z,20.48
2019-06-27T01:44:02.289Z,20.44
2019-06-27T01:45:02.249Z,20.28
2019-06-27T01:46:02.234Z,20.37
2019-06-27T01:47:02.214Z,20.43
2019-06-27T01:48:23.167Z,20.43
2019-06-27T01:49:02.149Z,20.47
2019-06-27T01:50:02.122Z,20.34
2019-06-27T01:51:02.101Z,20.24
2019-06-27T01:52:02.060Z,20.28
2019-06-27T01:53:02.037Z,20.18
2019-06-27T01:54:23.027Z,20.24
2019-06-27T01:55:01.972Z,20.24
2019-06-27T01:56:01.943Z,20.19
2019-06-27T01:57:01.926Z,20.29
2019-06-27T01:58:01.900Z,20.29
2019-06-27T01:59:01.864Z,20.22
2019-06-27T02:00:22.838Z,20.14
2019-06-27T02:01:01.799Z,20.21
2019-06-27T02:02:01.801Z,20.19
2019-06-27T02:03:01.763Z,20.19
2019-06-27T02:04:01.733Z,20.06
2019-06-27T02:05:01.773Z,20.14
2019-06-27T02:06:22.670Z,20.11
2019-06-27T02:07:01.654Z,20.07
2019-06-27T02:08:01.621Z,20.02
2019-06-27T02:09:01.600Z,20.04
2019-06-27T02:10:01.555Z,20.00
2019-06-27T02:11:01.525Z,20.02
2019-06-27T02:12:22.499Z,20.02
2019-06-27T02:13:01.474Z,20.02
2019-06-27T02:14:01.451Z,19.99
2019-06-27T02:15:01.417Z,20.04
2019-06-27T02:16:01.391Z,20.09
2019-06-27T02:17:01.364Z,20.14
2019-06-27T02:18:22.334Z,20.10
2019-06-27T02:19:01.294Z,20.09
2019-06-27T02:20:01.279Z,20.10
2019-06-27T02:21:01.248Z,20.06
2019-06-27T02:22:01.229Z,20.10
2019-06-27T02:23:01.191Z,20.00
2019-06-27T02:24:22.159Z,19.99
2019-06-27T02:25:01.133Z,19.94
2019-06-27T02:26:01.110Z,19.99
2019-06-27T02:27:01.095Z,19.99
2019-06-27T02:28:04.365Z,19.96
2019-06-27T02:29:01.017Z,19.99
2019-06-27T02:30:21.992Z,19.95
2019-06-27T02:31:00.981Z,20.02
2019-06-27T02:32:00.931Z,20.00
2019-06-27T02:33:00.902Z,19.92
2019-06-27T02:34:06.103Z,19.84
2019-06-27T02:35:00.869Z,19.85
2019-06-27T02:36:21.806Z,19.74
2019-06-27T02:37:00.792Z,19.76
2019-06-27T02:38:00.773Z,19.77
2019-06-27T02:39:00.742Z,19.74
2019-06-27T02:40:00.711Z,19.63
2019-06-27T02:41:00.671Z,19.81
2019-06-27T02:42:21.670Z,19.81
2019-06-27T02:43:00.617Z,19.62
2019-06-27T02:44:00.597Z,19.74
2019-06-27T02:45:00.580Z,19.77
2019-06-27T02:46:00.536Z,19.81
2019-06-27T02:47:00.509Z,19.85
2019-06-27T02:48:21.473Z,19.77
2019-06-27T02:49:00.455Z,19.67
2019-06-27T02:50:00.417Z,19.64
2019-06-27T02:51:00.403Z,19.70
2019-06-27T02:52:00.364Z,19.66
2019-06-27T02:53:00.342Z,19.64
2019-06-27T02:54:21.317Z,19.73
2019-06-27T02:55:00.282Z,19.67
2019-06-27T02:56:00.263Z,19.63
2019-06-27T02:57:00.228Z,19.73
2019-06-27T02:58:00.191Z,19.69
2019-06-27T02:59:00.162Z,19.56
2019-06-27T03:00:21.143Z,19.54
2019-06-27T03:01:00.113Z,19.58
2019-06-27T03:02:00.086Z,19.56
2019-06-27T03:03:00.071Z,19.48
2019-06-27T03:04:00.054Z,19.54
2019-06-27T03:04:59.993Z,19.58
2019-06-27T03:06:20.967Z,19.52
2019-06-27T03:06:59.947Z,19.55
2019-06-27T03:07:59.922Z,19.41
2019-06-27T03:08:59.884Z,19.47
2019-06-27T03:09:59.855Z,19.39
2019-06-27T03:10:59.844Z,19.45
2019-06-27T03:12:20.801Z,19.41
2019-06-27T03:12:59.774Z,19.31
2019-06-27T03:13:59.739Z,19.27
2019-06-27T03:14:59.717Z,19.21
2019-06-27T03:15:59.683Z,19.31
2019-06-27T03:16:59.655Z,19.24
2019-06-27T03:18:20.624Z,19.16
2019-06-27T03:18:59.615Z,19.09
2019-06-27T03:19:59.573Z,18.99
2019-06-27T03:20:59.544Z,18.99
2019-06-27T03:21:59.529Z,19.04
2019-06-27T03:22:59.482Z,19.04
2019-06-27T03:24:20.461Z,18.93
2019-06-27T03:24:59.427Z,18.95
2019-06-27T03:25:59.398Z,18.83
2019-06-27T03:26:59.369Z,18.84
2019-06-27T03:27:59.365Z,18.78
2019-06-27T03:28:59.314Z,18.73
2019-06-27T03:30:20.319Z,18.75
2019-06-27T03:30:59.267Z,18.73
2019-06-27T03:31:59.234Z,18.77
2019-06-27T03:32:59.209Z,18.78
2019-06-27T03:33:59.168Z,18.81
2019-06-27T03:34:59.146Z,18.84
2019-06-27T03:36:20.109Z,18.81
2019-06-27T03:36:59.083Z,18.70
2019-06-27T03:37:59.069Z,18.80
2019-06-27T03:38:59.024Z,18.88
2019-06-27T03:39:59.023Z,18.78
2019-06-27T03:40:58.970Z,18.88
2019-06-27T03:42:19.960Z,18.86
2019-06-27T03:42:58.911Z,18.96
2019-06-27T03:43:58.886Z,18.83
2019-06-27T03:44:58.864Z,18.74
2019-06-27T03:45:58.818Z,18.73
2019-06-27T03:46:58.797Z,18.63
2019-06-27T03:48:19.759Z,18.75
2019-06-27T03:48:58.743Z,18.73
2019-06-27T03:49:58.707Z,18.73
2019-06-27T03:50:58.671Z,18.71
2019-06-27T03:51:58.646Z,18.66
2019-06-27T03:52:58.610Z,18.55
2019-06-27T03:54:19.591Z,18.66
2019-06-27T03:54:58.564Z,18.60
2019-06-27T03:55:58.527Z,18.58
2019-06-27T03:56:58.499Z,18.52
2019-06-27T03:57:58.475Z,18.50
2019-06-27T03:59:11.523Z,18.52
2019-06-27T04:00:19.425Z,18.45
2019-06-27T04:00:58.392Z,18.59
2019-06-27T04:01:58.352Z,18.47
2019-06-27T04:02:58.335Z,18.38
2019-06-27T04:03:58.318Z,18.41
2019-06-27T04:04:58.276Z,18.52
2019-06-27T04:06:19.241Z,18.41
2019-06-27T04:06:58.222Z,18.37
2019-06-27T04:07:58.170Z,18.38
2019-06-27T04:08:58.161Z,18.47
2019-06-27T04:09:58.130Z,18.38
2019-06-27T04:10:58.101Z,18.44
2019-06-27T04:12:19.070Z,18.34
2019-06-27T04:12:58.036Z,18.28
2019-06-27T04:13:58.004Z,18.23
2019-06-27T04:14:57.981Z,18.33
2019-06-27T04:15:57.958Z,18.26
2019-06-27T04:16:57.930Z,18.33
2019-06-27T04:18:18.907Z,18.28
2019-06-27T04:18:57.861Z,18.25
2019-06-27T04:19:57.828Z,18.29
2019-06-27T04:20:57.813Z,18.33
2019-06-27T04:21:57.778Z,18.10
2019-06-27T04:22:57.753Z,18.07
2019-06-27T04:24:18.716Z,18.01
2019-06-27T04:24:57.682Z,18.03
2019-06-27T04:25:57.658Z,17.97
2019-06-27T04:26:57.629Z,18.01
2019-06-27T04:28:00.075Z,18.13
2019-06-27T04:28:57.574Z,18.04
2019-06-27T04:30:18.542Z,17.97
2019-06-27T04:30:57.511Z,18.00
2019-06-27T04:31:57.487Z,18.00
2019-06-27T04:32:57.455Z,17.98
2019-06-27T04:33:57.427Z,18.11
2019-06-27T04:34:57.395Z,18.13
2019-06-27T04:36:18.378Z,18.18
2019-06-27T04:36:57.339Z,18.10
2019-06-27T04:37:57.312Z,18.13
2019-06-27T04:38:57.272Z,18.08
2019-06-27T04:39:57.251Z,18.10
2019-06-27T04:40:57.213Z,18.07
2019-06-27T04:42:18.184Z,18.15
2019-06-27T04:42:57.162Z,18.01
2019-06-27T04:43:57.147Z,18.16
2019-06-27T04:44:57.098Z,18.05
2019-06-27T04:45:57.079Z,18.05
2019-06-27T04:46:57.052Z,17.98
2019-06-27T04:48:18.005Z,18.07
2019-06-27T04:48:56.989Z,18.01
2019-06-27T04:49:56.950Z,18.04
2019-06-27T04:50:56.955Z,18.08
2019-06-27T04:51:56.883Z,18.10
2019-06-27T04:52:56.862Z,18.11
2019-06-27T04:54:17.845Z,18.13
2019-06-27T04:54:56.810Z,18.16
2019-06-27T04:55:56.780Z,18.15
2019-06-27T04:56:56.756Z,18.08
2019-06-27T04:57:56.742Z,18.08
2019-06-27T04:58:56.715Z,18.10
2019-06-27T05:00:17.666Z,18.08
2019-06-27T05:00:56.624Z,18.11
2019-06-27T05:01:56.606Z,18.04
2019-06-27T05:02:56.592Z,18.13
2019-06-27T05:03:56.544Z,18.11
2019-06-27T05:04:56.515Z,18.26
2019-06-27T05:06:17.485Z,18.15
2019-06-27T05:06:56.466Z,18.13
2019-06-27T05:07:56.425Z,18.19
2019-06-27T05:08:56.389Z,18.29
2019-06-27T05:09:56.369Z,18.26
2019-06-27T05:10:56.348Z,18.28
2019-06-27T05:12:17.326Z,18.33
2019-06-27T05:12:56.280Z,18.18
2019-06-27T05:13:56.268Z,18.35
2019-06-27T05:14:56.211Z,18.33
2019-06-27T05:15:56.195Z,18.34
2019-06-27T05:16:56.167Z,18.37
2019-06-27T05:18:17.139Z,18.26
2019-06-27T05:18:56.103Z,18.29
2019-06-27T05:19:56.097Z,18.33
2019-06-27T05:20:56.059Z,18.34
2019-06-27T05:21:56.010Z,18.38
2019-06-27T05:22:55.982Z,18.47
2019-06-27T05:24:16.983Z,18.47
2019-06-27T05:24:55.927Z,18.50
2019-06-27T05:25:55.896Z,18.53
2019-06-27T05:26:55.869Z,18.49
2019-06-27T05:27:55.869Z,18.45
2019-06-27T05:28:55.823Z,18.56
2019-06-27T05:30:16.777Z,18.56
2019-06-27T05:30:55.833Z,18.65
2019-06-27T05:31:55.730Z,18.55
2019-06-27T05:32:55.693Z,18.47
2019-06-27T05:33:55.667Z,18.45
2019-06-27T05:34:55.627Z,18.31
2019-06-27T05:36:16.610Z,18.38
2019-06-27T05:36:55.610Z,18.35
2019-06-27T05:37:55.556Z,18.38
2019-06-27T05:38:55.540Z,18.35
2019-06-27T05:39:55.508Z,18.40
2019-06-27T05:40:55.463Z,18.45
2019-06-27T05:42:16.430Z,18.52
2019-06-27T05:42:55.393Z,18.52
2019-06-27T05:43:55.379Z,18.47
2019-06-27T05:44:55.341Z,18.45
2019-06-27T05:45:55.343Z,18.44
2019-06-27T05:46:55.276Z,18.49
2019-06-27T05:48:16.241Z,18.58
2019-06-27T05:48:55.231Z,18.56
2019-06-27T05:49:55.196Z,18.60
2019-06-27T05:50:55.162Z,18.58
2019-06-27T05:51:55.127Z,18.56
2019-06-27T05:52:55.109Z,18.44
2019-06-27T05:54:16.078Z,18.44
2019-06-27T05:54:55.051Z,18.45
2019-06-27T05:55:55.018Z,18.43
2019-06-27T05:56:54.986Z,18.38
2019-06-27T05:57:54.958Z,18.31
2019-06-27T05:58:54.926Z,18.26
2019-06-27T06:00:27.356Z,18.35
2019-06-27T06:00:54.876Z,18.33
2019-06-27T06:01:54.859Z,18.37
2019-06-27T06:02:54.819Z,18.45
2019-06-27T06:03:54.786Z,18.50
2019-06-27T06:04:54.766Z,18.49
2019-06-27T06:06:15.733Z,18.50
2019-06-27T06:06:54.698Z,18.58
2019-06-27T06:07:54.668Z,18.62
2019-06-27T06:08:54.648Z,18.71
2019-06-27T06:09:54.626Z,18.65
2019-06-27T06:10:54.602Z,18.80
2019-06-27T06:12:15.558Z,18.77
2019-06-27T06:12:54.523Z,18.73
2019-06-27T06:13:54.496Z,18.75
2019-06-27T06:14:54.458Z,18.75
2019-06-27T06:15:54.437Z,18.83
2019-06-27T06:16:54.414Z,18.77
2019-06-27T06:18:15.404Z,18.77
2019-06-27T06:18:54.349Z,18.77
2019-06-27T06:19:54.320Z,18.78
2019-06-27T06:20:54.296Z,18.74
2019-06-27T06:21:54.286Z,18.74
2019-06-27T06:22:54.233Z,18.88
2019-06-27T06:24:15.219Z,18.90
2019-06-27T06:24:54.167Z,18.92
2019-06-27T06:25:54.149Z,18.89
2019-06-27T06:26:54.134Z,18.96
2019-06-27T06:27:54.094Z,18.95
2019-06-27T06:28:54.068Z,19.07
2019-06-27T06:30:15.034Z,18.95
2019-06-27T06:30:54.015Z,18.93
2019-06-27T06:31:54.005Z,18.95
2019-06-27T06:32:53.939Z,18.96
2019-06-27T06:33:54.020Z,18.93
2019-06-27T06:34:53.894Z,18.95
2019-06-27T06:36:14.863Z,18.95
2019-06-27T06:36:53.844Z,18.92
2019-06-27T06:37:53.800Z,18.93
2019-06-27T06:38:53.780Z,19.07
2019-06-27T06:39:53.748Z,19.02
2019-06-27T06:40:53.729Z,19.00
2019-06-27T06:42:14.684Z,18.95
2019-06-27T06:42:56.967Z,18.90
2019-06-27T06:43:53.643Z,18.99
2019-06-27T06:44:53.598Z,18.92
2019-06-27T06:45:53.574Z,18.95
2019-06-27T06:46:53.540Z,18.92
2019-06-27T06:48:14.510Z,18.93
2019-06-27T06:48:53.484Z,18.95
2019-06-27T06:49:53.465Z,19.09
2019-06-27T06:50:53.429Z,18.96
2019-06-27T06:51:53.411Z,18.99
2019-06-27T06:52:53.362Z,19.11
2019-06-27T06:54:14.340Z,19.09
2019-06-27T06:54:53.310Z,19.27
2019-06-27T06:55:53.281Z,19.22
2019-06-27T06:56:53.255Z,19.19
2019-06-27T06:57:53.220Z,19.26
2019-06-27T06:58:53.217Z,19.29
2019-06-27T07:00:14.173Z,19.15
2019-06-27T07:01:01.713Z,19.09
2019-06-27T07:01:53.117Z,19.19
2019-06-27T07:02:53.122Z,19.07
2019-06-27T07:03:53.055Z,19.18
2019-06-27T07:04:53.025Z,19.19
2019-06-27T07:06:14.001Z,19.19
2019-06-27T07:06:52.968Z,19.27
2019-06-27T07:07:52.931Z,19.24
2019-06-27T07:08:52.917Z,19.22
2019-06-27T07:09:52.886Z,19.26
2019-06-27T07:10:52.852Z,19.19
2019-06-27T07:12:13.833Z,19.30
2019-06-27T07:12:52.814Z,19.34
2019-06-27T07:13:52.821Z,19.39
2019-06-27T07:14:52.753Z,19.45
2019-06-27T07:15:52.718Z,19.59
2019-06-27T07:16:52.672Z,19.51
2019-06-27T07:18:13.656Z,19.51
2019-06-27T07:18:52.618Z,19.55
2019-06-27T07:19:52.583Z,19.54
2019-06-27T07:20:52.566Z,19.54
2019-06-27T07:21:52.535Z,19.55
2019-06-27T07:22:52.502Z,19.62
2019-06-27T07:24:13.468Z,19.69
2019-06-27T07:24:52.553Z,19.76
2019-06-27T07:25:52.409Z,19.79
2019-06-27T07:26:52.398Z,19.67
2019-06-27T07:27:52.367Z,19.63
2019-06-27T07:28:52.328Z,19.56
2019-06-27T07:30:13.322Z,19.22
2019-06-27T07:30:52.281Z,19.27
2019-06-27T07:31:52.244Z,19.27
2019-06-27T07:32:52.219Z,19.40
2019-06-27T07:33:52.196Z,19.44
2019-06-27T07:34:52.182Z,19.30
2019-06-27T07:36:13.131Z,19.47
2019-06-27T07:36:52.104Z,19.54
2019-06-27T07:37:52.063Z,19.54
2019-06-27T07:38:52.048Z,19.82
2019-06-27T07:39:52.085Z,19.94
2019-06-27T07:40:51.993Z,20.00
2019-06-27T07:42:12.958Z,19.96
2019-06-27T07:42:51.934Z,19.76
2019-06-27T07:43:51.913Z,19.82
2019-06-27T07:44:51.889Z,19.95
2019-06-27T07:45:51.859Z,19.66
2019-06-27T07:46:51.817Z,19.91
2019-06-27T07:48:12.793Z,19.73
2019-06-27T07:48:51.760Z,19.86
2019-06-27T07:49:51.733Z,20.02
2019-06-27T07:50:51.736Z,19.94
2019-06-27T07:51:51.674Z,20.11
2019-06-27T07:52:51.656Z,20.11
2019-06-27T07:54:12.644Z,20.22
2019-06-27T07:54:51.585Z,20.07
2019-06-27T07:55:51.560Z,20.00
2019-06-27T07:56:51.554Z,20.11
2019-06-27T07:57:51.509Z,19.94
2019-06-27T07:58:51.475Z,19.88
2019-06-27T08:00:12.457Z,20.06
2019-06-27T08:00:51.429Z,20.11
2019-06-27T08:01:51.401Z,20.13
2019-06-27T08:02:51.380Z,19.94
2019-06-27T08:03:51.340Z,20.11
2019-06-27T08:04:51.319Z,20.21
2019-06-27T08:06:12.287Z,20.14
2019-06-27T08:06:51.263Z,20.25
2019-06-27T08:07:51.252Z,20.39
2019-06-27T08:08:51.205Z,20.39
2019-06-27T08:09:51.170Z,20.18
2019-06-27T08:10:51.140Z,20.40
2019-06-27T08:12:12.124Z,20.39
2019-06-27T08:12:51.086Z,20.32
2019-06-27T08:13:51.065Z,20.40
2019-06-27T08:14:51.034Z,20.44
2019-06-27T08:15:50.997Z,20.55
2019-06-27T08:16:50.994Z,20.26
2019-06-27T08:18:11.974Z,20.43
2019-06-27T08:18:50.935Z,20.43
2019-06-27T08:19:50.899Z,20.56
2019-06-27T08:20:50.859Z,20.82
2019-06-27T08:21:50.833Z,20.81
2019-06-27T08:22:50.801Z,20.95
2019-06-27T08:24:11.769Z,20.78
2019-06-27T08:24:50.755Z,20.55
2019-06-27T08:25:50.719Z,20.74
2019-06-27T08:26:50.708Z,20.74
2019-06-27T08:27:50.667Z,20.96
2019-06-27T08:28:50.823Z,20.96
2019-06-27T08:30:11.606Z,20.85
2019-06-27T08:30:50.608Z,21.12
2019-06-27T08:31:52.125Z,21.11
2019-06-27T08:32:50.523Z,21.14
2019-06-27T08:33:50.519Z,21.17
2019-06-27T08:34:50.510Z,21.21
2019-06-27T08:36:11.434Z,21.30
2019-06-27T08:36:50.414Z,21.33
2019-06-27T08:37:50.392Z,21.25
2019-06-27T08:38:50.361Z,21.32
2019-06-27T08:39:50.328Z,21.43
2019-06-27T08:40:50.317Z,21.39
2019-06-27T08:42:11.269Z,21.39
2019-06-27T08:42:50.252Z,21.35
2019-06-27T08:43:50.217Z,21.50
2019-06-27T08:44:50.187Z,21.45
2019-06-27T08:45:50.176Z,21.52
2019-06-27T08:46:50.141Z,21.55
2019-06-27T08:48:11.123Z,21.61
2019-06-27T08:48:50.102Z,21.62
2019-06-27T08:49:50.062Z,21.69
2019-06-27T08:50:50.022Z,21.48
2019-06-27T08:51:50.007Z,21.51
2019-06-27T08:52:49.992Z,21.51
2019-06-27T08:54:10.969Z,21.64
2019-06-27T08:54:49.917Z,21.66
2019-06-27T08:55:49.894Z,21.67
2019-06-27T08:56:49.859Z,21.73
2019-06-27T08:57:49.841Z,21.69
2019-06-27T08:58:49.809Z,21.73
2019-06-27T09:00:10.775Z,21.82
2019-06-27T09:00:49.758Z,21.72
2019-06-27T09:01:49.724Z,21.72
2019-06-27T09:02:49.708Z,21.82
2019-06-27T09:03:49.677Z,21.80
2019-06-27T09:04:49.656Z,21.70
2019-06-27T09:06:10.614Z,21.91
2019-06-27T09:06:49.591Z,21.98
2019-06-27T09:07:49.580Z,21.95
2019-06-27T09:08:49.537Z,22.08
2019-06-27T09:09:49.508Z,22.20
2019-06-27T09:10:49.488Z,22.04
2019-06-27T09:12:10.481Z,22.08
2019-06-27T09:12:49.441Z,22.07
2019-06-27T09:13:49.393Z,22.15
2019-06-27T09:14:49.382Z,22.20
2019-06-27T09:15:49.343Z,22.20
2019-06-27T09:16:49.326Z,22.20
2019-06-27T09:18:10.283Z,22.13
2019-06-27T09:18:49.261Z,22.33
2019-06-27T09:19:49.243Z,22.28
2019-06-27T09:20:49.211Z,22.35
2019-06-27T09:21:49.180Z,22.38
2019-06-27T09:22:49.156Z,22.45
2019-06-27T09:24:10.129Z,22.50
2019-06-27T09:24:49.100Z,22.53
2019-06-27T09:25:49.074Z,22.54
2019-06-27T09:26:49.044Z,22.54
2019-06-27T09:27:49.019Z,22.51
2019-06-27T09:28:49.005Z,22.51
2019-06-27T09:30:09.968Z,22.59
2019-06-27T09:30:48.949Z,22.54
2019-06-27T09:31:48.915Z,22.59
2019-06-27T09:32:48.889Z,22.66
2019-06-27T09:33:48.860Z,22.62
2019-06-27T09:34:48.842Z,22.68
2019-06-27T09:36:09.804Z,22.76
2019-06-27T09:36:48.781Z,22.80
2019-06-27T09:37:48.746Z,22.72
2019-06-27T09:38:48.721Z,22.87
2019-06-27T09:39:48.705Z,22.88
2019-06-27T09:40:48.661Z,22.90
2019-06-27T09:42:09.637Z,22.99
2019-06-27T09:42:48.621Z,23.06
2019-06-27T09:43:48.585Z,23.13
2019-06-27T09:44:48.560Z,23.27
2019-06-27T09:45:48.538Z,23.25
2019-06-27T09:46:48.528Z,23.31
2019-06-27T09:48:09.482Z,23.37
2019-06-27T09:48:48.466Z,23.39
2019-06-27T09:49:48.437Z,23.47
2019-06-27T09:50:48.407Z,23.55
2019-06-27T09:51:48.378Z,23.62
2019-06-27T09:52:48.354Z,23.63
2019-06-27T09:54:09.320Z,23.59
2019-06-27T09:54:48.366Z,23.48
2019-06-27T09:55:48.282Z,23.50
2019-06-27T09:56:48.247Z,23.36
2019-06-27T09:57:48.213Z,23.40
2019-06-27T09:58:48.203Z,23.54
2019-06-27T10:00:09.187Z,23.59
2019-06-27T10:00:48.157Z,23.56
2019-06-27T10:01:48.111Z,23.59
2019-06-27T10:02:48.117Z,23.59
2019-06-27T10:03:48.067Z,23.73
2019-06-27T10:04:48.101Z,23.91
2019-06-27T10:06:09.016Z,23.96
2019-06-27T10:06:47.981Z,24.11
2019-06-27T10:07:47.962Z,24.26
2019-06-27T10:08:47.951Z,24.47
2019-06-27T10:09:47.914Z,24.68
2019-06-27T10:10:47.891Z,24.69
2019-06-27T10:12:08.851Z,24.76
2019-06-27T10:12:47.823Z,24.65
2019-06-27T10:13:47.807Z,24.85
2019-06-27T10:14:47.789Z,25.01
2019-06-27T10:15:47.763Z,25.25
2019-06-27T10:16:47.742Z,25.51
2019-06-27T10:18:08.713Z,25.83
2019-06-27T10:18:47.694Z,26.06
2019-06-27T10:19:47.666Z,26.21
2019-06-27T10:20:47.642Z,26.09
2019-06-27T10:21:47.618Z,26.07
2019-06-27T10:22:47.585Z,26.05
2019-06-27T10:24:08.562Z,26.18
2019-06-27T10:24:47.549Z,26.34
2019-06-27T10:25:47.510Z,26.36
2019-06-27T10:26:47.493Z,26.22
2019-06-27T10:27:47.507Z,26.07
2019-06-27T10:28:47.443Z,26.22
2019-06-27T10:30:08.432Z,26.40
2019-06-27T10:30:49.268Z,26.56
2019-06-27T10:31:47.368Z,26.70
2019-06-27T10:32:58.222Z,26.48
2019-06-27T10:33:47.335Z,26.53
2019-06-27T10:34:47.315Z,26.48
2019-06-27T10:36:08.284Z,26.83
2019-06-27T10:36:47.256Z,26.93
2019-06-27T10:37:47.234Z,26.78
2019-06-27T10:38:47.223Z,26.73
2019-06-27T10:39:47.210Z,26.81
2019-06-27T10:40:47.169Z,26.90
2019-06-27T10:42:08.149Z,26.81
2019-06-27T10:42:47.108Z,26.16
2019-06-27T10:43:47.111Z,25.84
2019-06-27T10:44:47.130Z,25.66
2019-06-27T10:45:47.053Z,25.47
2019-06-27T10:46:47.014Z,25.77
2019-06-27T10:48:08.080Z,25.65
2019-06-27T10:48:46.973Z,25.91
2019-06-27T10:49:46.956Z,25.95
2019-06-27T10:50:46.933Z,25.58
2019-06-27T10:51:46.916Z,26.13
2019-06-27T10:52:46.898Z,26.41
2019-06-27T10:54:07.871Z,26.92
2019-06-27T10:54:46.851Z,26.45
2019-06-27T10:55:46.829Z,26.25
2019-06-27T10:56:46.797Z,26.06
2019-06-27T10:57:46.775Z,25.78
2019-06-27T10:58:46.740Z,25.68
2019-06-27T11:00:07.734Z,25.80
2019-06-27T11:00:46.697Z,25.54
2019-06-27T11:01:46.671Z,25.69
2019-06-27T11:02:46.684Z,25.47
2019-06-27T11:03:46.631Z,25.62
2019-06-27T11:04:46.655Z,25.53
2019-06-27T11:06:07.606Z,25.96
2019-06-27T11:06:46.567Z,26.45
2019-06-27T11:07:46.545Z,26.78
2019-06-27T11:08:46.516Z,27.10
2019-06-27T11:09:49.996Z,27.33
2019-06-27T11:10:46.481Z,27.40
2019-06-27T11:12:07.447Z,27.51
2019-06-27T11:12:46.424Z,27.71
2019-06-27T11:13:58.199Z,27.86
2019-06-27T11:14:58.644Z,27.95
2019-06-27T11:15:49.241Z,28.00
2019-06-27T11:16:46.335Z,28.10
2019-06-27T11:18:07.323Z,28.20
2019-06-27T11:18:46.292Z,28.20
2019-06-27T11:19:52.427Z,28.29
2019-06-27T11:20:46.254Z,28.23
2019-06-27T11:21:46.238Z,28.04
2019-06-27T11:22:46.235Z,28.10
2019-06-27T11:24:07.187Z,28.41
2019-06-27T11:24:46.171Z,28.57
2019-06-27T11:25:46.156Z,28.88
2019-06-27T11:26:46.116Z,29.05
2019-06-27T11:27:46.111Z,28.82
2019-06-27T11:28:46.066Z,28.82
2019-06-27T11:30:07.092Z,28.69
2019-06-27T11:30:46.032Z,28.97
2019-06-27T11:31:46.027Z,29.12
2019-06-27T11:32:45.992Z,29.12
2019-06-27T11:33:45.972Z,29.01
2019-06-27T11:34:45.947Z,28.84
2019-06-27T11:36:06.921Z,28.98
2019-06-27T11:36:46.740Z,29.10
2019-06-27T11:37:45.882Z,29.14
2019-06-27T11:38:45.852Z,29.31
2019-06-27T11:39:45.840Z,29.17
2019-06-27T11:40:45.810Z,28.98
2019-06-27T11:42:06.795Z,29.08
2019-06-27T11:42:45.766Z,29.31
2019-06-27T11:43:45.755Z,29.24
2019-06-27T11:44:45.732Z,28.82
2019-06-27T11:45:45.722Z,28.79
2019-06-27T11:46:45.679Z,28.69
2019-06-27T11:48:06.653Z,28.82
2019-06-27T11:48:45.635Z,28.93
2019-06-27T11:49:45.622Z,29.23
2019-06-27T11:50:45.594Z,29.34
2019-06-27T11:51:45.579Z,29.47
2019-06-27T11:52:47.274Z,29.51
2019-06-27T11:54:06.540Z,29.12
2019-06-27T11:54:45.518Z,28.93
2019-06-27T11:55:45.497Z,29.01
2019-06-27T11:56:45.463Z,29.02
2019-06-27T11:57:45.458Z,29.01
2019-06-27T11:58:45.443Z,29.27
2019-06-27T12:00:06.394Z,29.34
2019-06-27T12:00:45.385Z,29.51
2019-06-27T12:01:45.364Z,29.78
2019-06-27T12:02:45.335Z,29.87
2019-06-27T12:03:49.745Z,30.03
2019-06-27T12:04:45.299Z,30.16
2019-06-27T12:06:06.279Z,29.98
2019-06-27T12:06:45.254Z,30.10
2019-06-27T12:07:45.245Z,29.97
2019-06-27T12:08:45.292Z,29.60
2019-06-27T12:09:45.196Z,29.45
2019-06-27T12:10:45.174Z,29.56
2019-06-27T12:12:06.155Z,29.73
2019-06-27T12:12:45.145Z,29.91
2019-06-27T12:13:45.123Z,30.00
2019-06-27T12:14:45.085Z,30.03
2019-06-27T12:15:45.070Z,30.21
2019-06-27T12:16:45.053Z,30.16
2019-06-27T12:18:06.039Z,29.79
2019-06-27T12:18:44.996Z,29.87
2019-06-27T12:19:44.979Z,29.84
2019-06-27T12:20:44.959Z,29.87
2019-06-27T12:21:44.940Z,30.00
2019-06-27T12:22:44.916Z,30.03
2019-06-27T12:24:05.897Z,30.03
2019-06-27T12:24:44.879Z,30.08
2019-06-27T12:25:44.860Z,30.25
2019-06-27T12:26:44.843Z,30.23
2019-06-27T12:27:44.841Z,30.05
2019-06-27T12:28:44.787Z,30.02
2019-06-27T12:30:05.833Z,30.16
2019-06-27T12:30:44.735Z,30.02
2019-06-27T12:31:44.744Z,29.86
2019-06-27T12:32:51.710Z,29.90
2019-06-27T12:33:44.692Z,30.03
2019-06-27T12:34:44.662Z,30.27
2019-06-27T12:36:05.634Z,30.46
2019-06-27T12:36:44.616Z,30.59
2019-06-27T12:37:44.595Z,30.62
2019-06-27T12:38:44.571Z,30.24
2019-06-27T12:39:44.547Z,30.24
2019-06-27T12:40:44.543Z,30.18
2019-06-27T12:42:05.524Z,29.82
2019-06-27T12:42:44.494Z,30.02
2019-06-27T12:43:44.480Z,29.54
2019-06-27T12:44:44.446Z,29.44
2019-06-27T12:45:44.421Z,29.65
2019-06-27T12:46:44.405Z,29.60
2019-06-27T12:48:07.593Z,29.84
2019-06-27T12:48:44.362Z,30.09
2019-06-27T12:50:00.653Z,30.03
2019-06-27T12:50:44.327Z,30.10
2019-06-27T12:51:44.298Z,30.12